Observation data for Sundown on 01/19/2019      Previous  Date  Next       Current Mesonet Observations  Soil Data  Daily Summary Page  Observations in Plain Language
KSDS 190600Z 34023G32KT 02/00 A3008 RMK A01 T00200003  RH  090%=      5-min Rain = 0
KSDS 190605Z 33022G33KT 02/M00 A3008 RMK A01 T00181001  RH  088%=      5-min Rain = 0
KSDS 190610Z 33023G32KT 02/M00 A3008 RMK A01 T00161004  RH  087%=      5-min Rain = 0
KSDS 190615Z 34023G28KT 02/M01 A3009 RMK A01 T00151005  RH  087%=      5-min Rain = 0
KSDS 190620Z 33024G33KT 01/M01 A3009 RMK A01 T00141007  RH  087%=      5-min Rain = 0
KSDS 190625Z 33023G28KT 01/M01 A301 RMK A01 T00131008  RH  087%=      5-min Rain = 0
KSDS 190630Z 33021G29KT 01/M01 A301 RMK A01 T00141006  RH  088%=      5-min Rain = 0
KSDS 190635Z 34021G26KT 02/M01 A301 RMK A01 T00151006  RH  087%=      5-min Rain = 0
KSDS 190640Z 33023G29KT 02/M01 A301 RMK A01 T00151007  RH  086%=      5-min Rain = 0
KSDS 190645Z 34020G25KT 02/M01 A3011 RMK A01 T00151009  RH  085%=      5-min Rain = 0
KSDS 190650Z 34023G28KT 01/M01 A3011 RMK A01 T00141012  RH  084%=      5-min Rain = 0
KSDS 190655Z 33019G25KT 01/M01 A3011 RMK A01 T00121014  RH  084%=      5-min Rain = 0
KSDS 190700Z 34019G27KT 01/M02 A3012 RMK A01 T00101016  RH  084%=      5-min Rain = 0
KSDS 190705Z 34023G31KT 01/M02 A3012 RMK A01 T00121018  RH  081%=      5-min Rain = 0
KSDS 190710Z 34023G32KT 01/M02 A3012 RMK A01 T00111019  RH  081%=      5-min Rain = 0
KSDS 190715Z 33019G25KT 01/M02 A3012 RMK A01 T00101018  RH  083%=      5-min Rain = 0
KSDS 190720Z 33018G23KT 01/M02 A3012 RMK A01 T00081018  RH  083%=      5-min Rain = 0
KSDS 190725Z 33018KT 01/M02 A3012 RMK A01 T00081017  RH  084%=      5-min Rain = 0
KSDS 190730Z 33019G24KT 01/M02 A3013 RMK A01 T00091018  RH  083%=      5-min Rain = 0
KSDS 190735Z 33019G28KT 01/M02 A3013 RMK A01 T00091019  RH  082%=      5-min Rain = 0
KSDS 190740Z 33017G24KT 01/M02 A3013 RMK A01 T00081018  RH  083%=      5-min Rain = 0
KSDS 190745Z 33020G28KT 01/M02 A3013 RMK A01 T00091021  RH  081%=      5-min Rain = 0
KSDS 190750Z 33021G32KT 01/M02 A3013 RMK A01 T00091024  RH  079%=      5-min Rain = 0
KSDS 190755Z 33020G26KT 01/M03 A3014 RMK A01 T00081025  RH  079%=      5-min Rain = 0
KSDS 190800Z 33018G23KT 01/M02 A3014 RMK A01 T00071024  RH  080%=      5-min Rain = 0
KSDS 190805Z 32020G27KT 01/M02 A3015 RMK A01 T00081023  RH  080%=      5-min Rain = 0
KSDS 190810Z 33017G22KT 01/M02 A3015 RMK A01 T00071023  RH  081%=      5-min Rain = 0
KSDS 190815Z 32016G21KT 01/M02 A3015 RMK A01 T00061023  RH  082%=      5-min Rain = 0
KSDS 190820Z 32017G22KT 01/M02 A3015 RMK A01 T00061023  RH  082%=      5-min Rain = 0
KSDS 190825Z 33017G22KT 01/M02 A3015 RMK A01 T00061023  RH  081%=      5-min Rain = 0
KSDS 190830Z 33017G22KT 01/M02 A3015 RMK A01 T00071024  RH  081%=      5-min Rain = 0
KSDS 190835Z 33018G24KT 01/M02 A3015 RMK A01 T00081024  RH  080%=      5-min Rain = 0
KSDS 190840Z 33016G21KT 01/M02 A3016 RMK A01 T00071024  RH  080%=      5-min Rain = 0
KSDS 190845Z 33016G21KT 01/M02 A3016 RMK A01 T00061024  RH  081%=      5-min Rain = 0
KSDS 190850Z 33017KT 01/M02 A3016 RMK A01 T00071024  RH  081%=      5-min Rain = 0
KSDS 190855Z 33018KT 01/M02 A3016 RMK A01 T00081024  RH  080%=      5-min Rain = 0
KSDS 190900Z 34017KT 01/M03 A3016 RMK A01 T00081025  RH  079%=      5-min Rain = 0
KSDS 190905Z 33015KT 01/M02 A3017 RMK A01 T00061024  RH  081%=      5-min Rain = 0
KSDS 190910Z 33016G21KT 01/M02 A3017 RMK A01 T00071024  RH  080%=      5-min Rain = 0
KSDS 190915Z 33015KT 01/M02 A3017 RMK A01 T00061024  RH  081%=      5-min Rain = 0
KSDS 190920Z 33014KT 01/M02 A3017 RMK A01 T00051024  RH  081%=      5-min Rain = 0
KSDS 190925Z 33016G21KT 01/M02 A3017 RMK A01 T00061024  RH  081%=      5-min Rain = 0
KSDS 190930Z 33018G24KT 01/M03 A3017 RMK A01 T00081025  RH  079%=      5-min Rain = 0
KSDS 190935Z 33017G23KT 01/M03 A3018 RMK A01 T00081026  RH  078%=      5-min Rain = 0
KSDS 190940Z 33017KT 01/M03 A3018 RMK A01 T00091027  RH  077%=      5-min Rain = 0
KSDS 190945Z 33015KT 01/M03 A3018 RMK A01 T00071027  RH  079%=      5-min Rain = 0
KSDS 190950Z 33014KT 01/M03 A3018 RMK A01 T00061027  RH  079%=      5-min Rain = 0
KSDS 190955Z 33013KT 00/M03 A3018 RMK A01 T00041027  RH  080%=      5-min Rain = 0
KSDS 191000Z 33013KT 00/M03 A3018 RMK A01 T00041027  RH  080%=      5-min Rain = 0
KSDS 191005Z 33011KT 00/M03 A3018 RMK A01 T00031027  RH  081%=      5-min Rain = 0
KSDS 191010Z 32011KT 00/M03 A3019 RMK A01 T00011027  RH  082%=      5-min Rain = 0
KSDS 191015Z 32011KT 00/M03 A3019 RMK A01 T00011027  RH  082%=      5-min Rain = 0
KSDS 191020Z 32011KT 00/03 A3019 RMK A01 T00000-27  RH  083%=      5-min Rain = 0
KSDS 191025Z 32012KT 00/M03 A3019 RMK A01 T00011026  RH  082%=      5-min Rain = 0
KSDS 191030Z 32011KT 00/M03 A3019 RMK A01 T00011026  RH  083%=      5-min Rain = 0
KSDS 191035Z 32012KT 00/M03 A3019 RMK A01 T00021026  RH  082%=      5-min Rain = 0
KSDS 191040Z 32014KT 01/M03 A3019 RMK A01 T00051026  RH  080%=      5-min Rain = 0
KSDS 191045Z 33013KT 01/M03 A3019 RMK A01 T00061026  RH  080%=      5-min Rain = 0
KSDS 191050Z 33014G19KT 01/M03 A3019 RMK A01 T00081026  RH  079%=      5-min Rain = 0
KSDS 191055Z 33015KT 01/M03 A3018 RMK A01 T00091027  RH  077%=      5-min Rain = 0
KSDS 191100Z 33015KT 01/M03 A3018 RMK A01 T00111028  RH  076%=      5-min Rain = 0
KSDS 191105Z 33015KT 01/M03 A3018 RMK A01 T00121028  RH  075%=      5-min Rain = 0
KSDS 191110Z 33014KT 01/M03 A3019 RMK A01 T00121028  RH  075%=      5-min Rain = 0
KSDS 191115Z 32014KT 01/M03 A3019 RMK A01 T00101029  RH  076%=      5-min Rain = 0
KSDS 191120Z 33014KT 01/M03 A3019 RMK A01 T00101029  RH  076%=      5-min Rain = 0
KSDS 191125Z 33013G18KT 01/M03 A3019 RMK A01 T00091029  RH  076%=      5-min Rain = 0
KSDS 191130Z 33013G18KT 01/M03 A3019 RMK A01 T00091029  RH  076%=      5-min Rain = 0
KSDS 191135Z 33013KT 01/M03 A3019 RMK A01 T00091030  RH  076%=      5-min Rain = 0
KSDS 191140Z 33012KT 01/M03 A3019 RMK A01 T00081030  RH  076%=      5-min Rain = 0
KSDS 191145Z 33012KT 01/M03 A3019 RMK A01 T00061031  RH  077%=      5-min Rain = 0
KSDS 191150Z 33012KT 01/M03 A302 RMK A01 T00051031  RH  077%=      5-min Rain = 0
KSDS 191155Z 32011KT 00/M03 A302 RMK A01 T00041032  RH  077%=      5-min Rain = 0
KSDS 191200Z 32011KT 00/M03 A302 RMK A01 T00031032  RH  078%=      5-min Rain = 0
KSDS 191205Z 32011KT 00/M03 A302 RMK A01 T00011032  RH  079%=      5-min Rain = 0
KSDS 191210Z 32012KT 00/M03 A3021 RMK A01 T00011032  RH  079%=      5-min Rain = 0
KSDS 191215Z 32011KT 00/03 A3021 RMK A01 T00-00-32  RH  080%=      5-min Rain = 0
KSDS 191220Z 32010KT M00/M03 A3021 RMK A01 T10021032  RH  080%=      5-min Rain = 0
KSDS 191225Z 32011KT M00/M03 A3021 RMK A01 T10021033  RH  080%=      5-min Rain = 0
KSDS 191230Z 31011KT M00/M03 A3022 RMK A01 T10021033  RH  080%=      5-min Rain = 0
KSDS 191235Z 31010KT M00/M03 A3022 RMK A01 T10041033  RH  081%=      5-min Rain = 0
KSDS 191240Z 31009KT M01/M03 A3023 RMK A01 T10061034  RH  082%=      5-min Rain = 0
KSDS 191245Z 31010KT M01/M03 A3023 RMK A01 T10081034  RH  083%=      5-min Rain = 0
KSDS 191250Z 30010KT M01/M04 A3024 RMK A01 T10081035  RH  083%=      5-min Rain = 0
KSDS 191255Z 30010KT M01/M04 A3024 RMK A01 T10091035  RH  083%=      5-min Rain = 0
KSDS 191300Z 30009KT M01/M04 A3024 RMK A01 T10091035  RH  083%=      5-min Rain = 0
KSDS 191305Z 31009KT M01/M04 A3025 RMK A01 T10091035  RH  083%=      5-min Rain = 0
KSDS 191310Z 32008KT M01/M04 A3025 RMK A01 T10091035  RH  083%=      5-min Rain = 0
KSDS 191315Z 32009KT M01/M03 A3025 RMK A01 T10071034  RH  082%=      5-min Rain = 0
KSDS 191320Z 32009KT M01/M03 A3025 RMK A01 T10051034  RH  081%=      5-min Rain = 0
KSDS 191325Z 31010KT M00/M03 A3025 RMK A01 T10031034  RH  080%=      5-min Rain = 0
KSDS 191330Z 31011KT M00/M03 A3025 RMK A01 T10021033  RH  080%=      5-min Rain = 0
KSDS 191335Z 31011KT M00/M03 A3026 RMK A01 T10011033  RH  079%=      5-min Rain = 0
KSDS 191340Z 31012KT 00/03 A3026 RMK A01 T00000-33  RH  079%=      5-min Rain = 0
KSDS 191345Z 32012KT 00/03 A3026 RMK A01 T00-00-34  RH  079%=      5-min Rain = 0
KSDS 191350Z 32012KT 00/03 A3026 RMK A01 T00-00-34  RH  078%=      5-min Rain = 0
KSDS 191355Z 32012KT 00/M03 A3026 RMK A01 T00011034  RH  078%=      5-min Rain = 0
KSDS 191400Z 32012KT 00/M03 A3027 RMK A01 T00021034  RH  077%=      5-min Rain = 0
KSDS 191405Z 32012KT 00/M03 A3027 RMK A01 T00041034  RH  076%=      5-min Rain = 0
KSDS 191410Z 32012KT 01/M03 A3027 RMK A01 T00051034  RH  076%=      5-min Rain = 0
KSDS 191415Z 32011KT 01/M03 A3028 RMK A01 T00051034  RH  076%=      5-min Rain = 0
KSDS 191420Z 32011KT 01/M03 A3028 RMK A01 T00061034  RH  075%=      5-min Rain = 0
KSDS 191425Z 32011KT 01/M03 A3028 RMK A01 T00071033  RH  075%=      5-min Rain = 0
KSDS 191430Z 31010KT 01/M03 A3028 RMK A01 T00081032  RH  075%=      5-min Rain = 0
KSDS 191435Z 31011KT 01/M03 A3028 RMK A01 T00091032  RH  075%=      5-min Rain = 0
KSDS 191440Z 31010KT 01/M03 A3029 RMK A01 T00111031  RH  074%=      5-min Rain = 0
KSDS 191445Z 31011KT 01/M03 A3029 RMK A01 T00141029  RH  073%=      5-min Rain = 0
KSDS 191450Z 31011KT 02/M03 A3029 RMK A01 T00181029  RH  072%=      5-min Rain = 0
KSDS 191455Z 31011KT 02/M03 A303 RMK A01 T00211028  RH  070%=      5-min Rain = 0
KSDS 191500Z 31011KT 03/M03 A303 RMK A01 T00251027  RH  069%=      5-min Rain = 0
KSDS 191505Z 31011KT 03/M03 A303 RMK A01 T00281027  RH  068%=      5-min Rain = 0
KSDS 191510Z 31012G17KT 03/M03 A303 RMK A01 T00311027  RH  066%=      5-min Rain = 0
KSDS 191515Z 32013KT 03/M03 A303 RMK A01 T00321028  RH  065%=      5-min Rain = 0
KSDS 191520Z 31013G18KT 03/M03 A3031 RMK A01 T00341028  RH  065%=      5-min Rain = 0
KSDS 191525Z 32013KT 04/M03 A3031 RMK A01 T00371027  RH  063%=      5-min Rain = 0
KSDS 191530Z 33013KT 04/M03 A3031 RMK A01 T00411027  RH  062%=      5-min Rain = 0
KSDS 191535Z 33012KT 04/M03 A3031 RMK A01 T00431026  RH  061%=      5-min Rain = 0
KSDS 191540Z 32013KT 05/M03 A3031 RMK A01 T00451025  RH  061%=      5-min Rain = 0
KSDS 191545Z 33014KT 05/M03 A3031 RMK A01 T00461027  RH  060%=      5-min Rain = 0
KSDS 191550Z 32013KT 05/M02 A3031 RMK A01 T00491024  RH  060%=      5-min Rain = 0
KSDS 191555Z 33012G19KT 05/M02 A3031 RMK A01 T00521022  RH  059%=      5-min Rain = 0
KSDS 191600Z 33015G21KT 05/M03 A3031 RMK A01 T00531026  RH  057%=      5-min Rain = 0
KSDS 191605Z 33017KT 05/M03 A3032 RMK A01 T00531025  RH  057%=      5-min Rain = 0
KSDS 191610Z 33015KT 06/M02 A3032 RMK A01 T00561024  RH  057%=      5-min Rain = 0
KSDS 191615Z 33014G19KT 06/M03 A3032 RMK A01 T00591025  RH  055%=      5-min Rain = 0
KSDS 191620Z 33014G19KT 06/M02 A3032 RMK A01 T00631024  RH  054%=      5-min Rain = 0
KSDS 191625Z 34015G21KT 07/M03 A3032 RMK A01 T00651026  RH  052%=      5-min Rain = 0
KSDS 191630Z 34016G21KT 07/M03 A3032 RMK A01 T00661027  RH  052%=      5-min Rain = 0
KSDS 191635Z 33016G21KT 07/M03 A3032 RMK A01 T00681027  RH  051%=      5-min Rain = 0
KSDS 191640Z 33016G21KT 07/M03 A3032 RMK A01 T00691028  RH  050%=      5-min Rain = 0
KSDS 191645Z 34016G21KT 07/M03 A3032 RMK A01 T00711028  RH  050%=      5-min Rain = 0
KSDS 191650Z 35015G22KT 07/M03 A3033 RMK A01 T00701028  RH  050%=      5-min Rain = 0
KSDS 191655Z 35015KT 08/M03 A3033 RMK A01 T00751025  RH  049%=      5-min Rain = 0
KSDS 191700Z 35016KT 07/M03 A3033 RMK A01 T00731028  RH  049%=      5-min Rain = 0
KSDS 191705Z 33015KT 08/M03 A3033 RMK A01 T00751026  RH  049%=      5-min Rain = 0
KSDS 191710Z 34014KT 08/M02 A3033 RMK A01 T00761024  RH  049%=      5-min Rain = 0
KSDS 191715Z 34015KT 08/M03 A3033 RMK A01 T00791025  RH  048%=      5-min Rain = 0
KSDS 191720Z 34016G22KT 08/M03 A3033 RMK A01 T00791027  RH  047%=      5-min Rain = 0
KSDS 191725Z 34014KT 08/M03 A3033 RMK A01 T00811025  RH  048%=      5-min Rain = 0
KSDS 191730Z 35014G22KT 08/M03 A3033 RMK A01 T00821025  RH  047%=      5-min Rain = 0
KSDS 191735Z 35016KT 08/M03 A3033 RMK A01 T00811027  RH  047%=      5-min Rain = 0
KSDS 191740Z 35014G19KT 08/M03 A3033 RMK A01 T00821026  RH  047%=      5-min Rain = 0
KSDS 191745Z 33015G21KT 09/M03 A3033 RMK A01 T00851025  RH  046%=      5-min Rain = 0
KSDS 191750Z 34013G19KT 09/M03 A3034 RMK A01 T00881027  RH  045%=      5-min Rain = 0
KSDS 191755Z 34014G19KT 09/M03 A3034 RMK A01 T00901028  RH  044%=      5-min Rain = 0
KSDS 191800Z 34013G18KT 09/M03 A3033 RMK A01 T00921026  RH  044%=      5-min Rain = 0
KSDS 191805Z 33013G18KT 09/M03 A3033 RMK A01 T00921028  RH  043%=      5-min Rain = 0
KSDS 191810Z 34011G16KT 09/M03 A3033 RMK A01 T00931028  RH  043%=      5-min Rain = 0
KSDS 191815Z 32011KT 09/M03 A3033 RMK A01 T00931028  RH  043%=      5-min Rain = 0
KSDS 191820Z 34012G19KT 10/M03 A3033 RMK A01 T00951029  RH  042%=      5-min Rain = 0
KSDS 191825Z 34012G17KT 10/M03 A3033 RMK A01 T00961029  RH  042%=      5-min Rain = 0
KSDS 191830Z 34010KT 10/M03 A3033 RMK A01 T00981028  RH  041%=      5-min Rain = 0
KSDS 191835Z 32010G15KT 10/M03 A3032 RMK A01 T00991029  RH  041%=      5-min Rain = 0
KSDS 191840Z 32012G17KT 10/M03 A3032 RMK A01 T00981030  RH  041%=      5-min Rain = 0
KSDS 191845Z 32008G13KT 10/M03 A3032 RMK A01 T00991029  RH  041%=      5-min Rain = 0
KSDS 191850Z 34010G17KT 10/M03 A3032 RMK A01 T01001028  RH  041%=      5-min Rain = 0
KSDS 191855Z 32011G16KT 10/M03 A3032 RMK A01 T01031030  RH  040%=      5-min Rain = 0
KSDS 191900Z 32012KT 10/M03 A3031 RMK A01 T01021029  RH  040%=      5-min Rain = 0
KSDS 191905Z 30009KT 10/M03 A3031 RMK A01 T01021029  RH  040%=      5-min Rain = 0
KSDS 191910Z 32010KT 11/M03 A3031 RMK A01 T01051029  RH  039%=      5-min Rain = 0
KSDS 191915Z 34008G13KT 10/M03 A3031 RMK A01 T01041031  RH  039%=      5-min Rain = 0
KSDS 191920Z 33009KT 11/M03 A303 RMK A01 T01071029  RH  039%=      5-min Rain = 0
KSDS 191925Z 32009KT 11/M03 A303 RMK A01 T01071028  RH  039%=      5-min Rain = 0
KSDS 191930Z 32009G15KT 11/M03 A303 RMK A01 T01111027  RH  038%=      5-min Rain = 0
KSDS 191935Z 31009KT 11/M03 A303 RMK A01 T01111029  RH  038%=      5-min Rain = 0
KSDS 191940Z 33007KT 11/M03 A3029 RMK A01 T01081030  RH  038%=      5-min Rain = 0
KSDS 191945Z 33006KT 11/M03 A3029 RMK A01 T01101029  RH  038%=      5-min Rain = 0
KSDS 191950Z 33009G15KT 11/M03 A3029 RMK A01 T01141028  RH  037%=      5-min Rain = 0
KSDS 191955Z 33005KT 11/M03 A3029 RMK A01 T01111028  RH  038%=      5-min Rain = 0
KSDS 192000Z 32009KT 12/M03 A3029 RMK A01 T01151029  RH  037%=      5-min Rain = 0
KSDS 192005Z 34008KT 12/M03 A3028 RMK A01 T01151029  RH  037%=      5-min Rain = 0
KSDS 192010Z 34011KT 12/M03 A3028 RMK A01 T01171031  RH  036%=      5-min Rain = 0
KSDS 192015Z 32007G13KT 12/M03 A3028 RMK A01 T01181029  RH  036%=      5-min Rain = 0
KSDS 192020Z 31005KT 12/M03 A3027 RMK A01 T01161030  RH  036%=      5-min Rain = 0
KSDS 192025Z 32007G12KT 12/M03 A3027 RMK A01 T01151031  RH  036%=      5-min Rain = 0
KSDS 192030Z 29008G13KT 12/M03 A3027 RMK A01 T01201034  RH  034%=      5-min Rain = 0
KSDS 192035Z 29010KT 12/M04 A3027 RMK A01 T01191038  RH  033%=      5-min Rain = 0
KSDS 192040Z 32009KT 12/M04 A3027 RMK A01 T01151035  RH  035%=      5-min Rain = 0
KSDS 192045Z 31007KT 12/M04 A3026 RMK A01 T01171036  RH  034%=      5-min Rain = 0
KSDS 192050Z 32009G14KT 12/M04 A3026 RMK A01 T01181038  RH  034%=      5-min Rain = 0
KSDS 192055Z 32009KT 12/M04 A3026 RMK A01 T01171042  RH  033%=      5-min Rain = 0
KSDS 192100Z 29008KT 12/M05 A3026 RMK A01 T01191048  RH  031%=      5-min Rain = 0
KSDS 192105Z 27008G13KT 12/M04 A3025 RMK A01 T01211042  RH  032%=      5-min Rain = 0
KSDS 192110Z 29007KT 12/M04 A3025 RMK A01 T01221044  RH  031%=      5-min Rain = 0
KSDS 192115Z 31009G14KT 12/M04 A3026 RMK A01 T01241042  RH  031%=      5-min Rain = 0
KSDS 192120Z 31007KT 12/M05 A3026 RMK A01 T01231047  RH  030%=      5-min Rain = 0
KSDS 192125Z 30009KT 12/M06 A3026 RMK A01 T01241060  RH  027%=      5-min Rain = 0
KSDS 192130Z 33006KT 13/M06 A3025 RMK A01 T01251062  RH  027%=      5-min Rain = 0
KSDS 192135Z 33007G12KT 12/M06 A3025 RMK A01 T01231055  RH  029%=      5-min Rain = 0
KSDS 192140Z 33008KT 12/M05 A3025 RMK A01 T01241048  RH  030%=      5-min Rain = 0
KSDS 192145Z 30007G12KT 13/M05 A3025 RMK A01 T01281050  RH  029%=      5-min Rain = 0
KSDS 192150Z 30007KT 13/M06 A3025 RMK A01 T01261056  RH  028%=      5-min Rain = 0
KSDS 192155Z 33008KT 13/M06 A3025 RMK A01 T01251063  RH  026%=      5-min Rain = 0
KSDS 192200Z 35007KT 13/M06 A3025 RMK A01 T01251059  RH  027%=      5-min Rain = 0
KSDS 192205Z 34004KT 13/M06 A3025 RMK A01 T01261059  RH  027%=      5-min Rain = 0
KSDS 192210Z 32004KT 13/M06 A3025 RMK A01 T01261059  RH  027%=      5-min Rain = 0
KSDS 192215Z 33005G11KT 13/M06 A3024 RMK A01 T01271060  RH  027%=      5-min Rain = 0
KSDS 192220Z 32007KT 13/M06 A3024 RMK A01 T01261064  RH  026%=      5-min Rain = 0
KSDS 192225Z 32003KT 13/M07 A3024 RMK A01 T01251065  RH  026%=      5-min Rain = 0
KSDS 192230Z 31006G12KT 13/M06 A3024 RMK A01 T01271064  RH  026%=      5-min Rain = 0
KSDS 192235Z 31004G9KT 13/M06 A3024 RMK A01 T01261064  RH  026%=      5-min Rain = 0
KSDS 192240Z 33007KT 13/M07 A3024 RMK A01 T01271065  RH  026%=      5-min Rain = 0
KSDS 192245Z 32006KT 13/M07 A3024 RMK A01 T01261065  RH  026%=      5-min Rain = 0
KSDS 192250Z 33005KT 13/M07 A3024 RMK A01 T01251066  RH  026%=      5-min Rain = 0
KSDS 192255Z 34004KT 13/M07 A3024 RMK A01 T01251067  RH  026%=      5-min Rain = 0
KSDS 192300Z 34006KT 13/M07 A3024 RMK A01 T01251067  RH  026%=      5-min Rain = 0
KSDS 192305Z 33005KT 12/M07 A3024 RMK A01 T01241067  RH  026%=      5-min Rain = 0
KSDS 192310Z 36005KT 12/M07 A3024 RMK A01 T01231066  RH  026%=      5-min Rain = 0
KSDS 192315Z 35002KT 12/M07 A3024 RMK A01 T01231067  RH  026%=      5-min Rain = 0
KSDS 192320Z 01004KT 12/M06 A3024 RMK A01 T01221064  RH  027%=      5-min Rain = 0
KSDS 192325Z 02003KT 12/M06 A3024 RMK A01 T01211064  RH  027%=      5-min Rain = 0
KSDS 192330Z 03003KT 12/M06 A3024 RMK A01 T01191064  RH  027%=      5-min Rain = 0
KSDS 192335Z 03003KT 12/M06 A3024 RMK A01 T01181063  RH  027%=      5-min Rain = 0
KSDS 192340Z 02002KT 12/M06 A3024 RMK A01 T01171064  RH  028%=      5-min Rain = 0
KSDS 192345Z 03003KT 12/M06 A3024 RMK A01 T01151063  RH  028%=      5-min Rain = 0
KSDS 192350Z 04002KT 11/M06 A3024 RMK A01 T01131063  RH  028%=      5-min Rain = 0
KSDS 192355Z 05003KT 11/M06 A3024 RMK A01 T01101063  RH  029%=      5-min Rain = 0
KSDS 200000Z 05002KT 11/M06 A3025 RMK A01 T01071063  RH  030%=      5-min Rain = 0
KSDS 200005Z 06002KT 10/M06 A3025 RMK A01 T01041063  RH  030%=      5-min Rain = 0
KSDS 200010Z 06003KT 10/M06 A3025 RMK A01 T01011062  RH  031%=      5-min Rain = 0
KSDS 200015Z 05003KT 10/M06 A3025 RMK A01 T00971063  RH  032%=      5-min Rain = 0
KSDS 200020Z 06003KT 10/M06 A3025 RMK A01 T00951063  RH  032%=      5-min Rain = 0
KSDS 200025Z 07004KT 09/M06 A3025 RMK A01 T00901063  RH  033%=      5-min Rain = 0
KSDS 200030Z 09004KT 08/M07 A3025 RMK A01 T00761065  RH  036%=      5-min Rain = 0
KSDS 200035Z 08005KT 07/M06 A3025 RMK A01 T00731064  RH  037%=      5-min Rain = 0
KSDS 200040Z 08005KT 07/M06 A3025 RMK A01 T00741063  RH  037%=      5-min Rain = 0
KSDS 200045Z 07005KT 08/M06 A3025 RMK A01 T00751063  RH  037%=      5-min Rain = 0
KSDS 200050Z 07005KT 08/M06 A3025 RMK A01 T00771063  RH  037%=      5-min Rain = 0
KSDS 200055Z 07005KT 07/M06 A3025 RMK A01 T00741062  RH  037%=      5-min Rain = 0
KSDS 200100Z 07005KT 07/M06 A3025 RMK A01 T00731062  RH  038%=      5-min Rain = 0
KSDS 200105Z 07005KT 07/M06 A3025 RMK A01 T00711063  RH  038%=      5-min Rain = 0
KSDS 200110Z 11006KT 06/M06 A3025 RMK A01 T00621064  RH  040%=      5-min Rain = 0
KSDS 200115Z 12005KT 05/M07 A3025 RMK A01 T00451067  RH  044%=      5-min Rain = 0
KSDS 200120Z 13004KT 04/M07 A3025 RMK A01 T00371066  RH  047%=      5-min Rain = 0
KSDS 200125Z 12004KT 04/M06 A3025 RMK A01 T00431064  RH  046%=      5-min Rain = 0
KSDS 200130Z 11005KT 06/M07 A3025 RMK A01 T00551065  RH  042%=      5-min Rain = 0
KSDS 200135Z 12006KT 05/M07 A3024 RMK A01 T00541066  RH  042%=      5-min Rain = 0
KSDS 200140Z 13006KT 05/M07 A3024 RMK A01 T00451065  RH  045%=      5-min Rain = 0
KSDS 200145Z 13006KT 04/M07 A3023 RMK A01 T00371066  RH  047%=      5-min Rain = 0
KSDS 200150Z 13007KT 03/M07 A3024 RMK A01 T00331066  RH  048%=      5-min Rain = 0
KSDS 200155Z 12007KT 03/M07 A3024 RMK A01 T00321065  RH  049%=      5-min Rain = 0
KSDS 200200Z 10008KT 04/M07 A3024 RMK A01 T00361065  RH  048%=      5-min Rain = 0
KSDS 200205Z 11008KT 04/M06 A3025 RMK A01 T00371063  RH  048%=      5-min Rain = 0
KSDS 200210Z 11007KT 04/M06 A3025 RMK A01 T00371062  RH  049%=      5-min Rain = 0
KSDS 200215Z 11007KT 03/M06 A3026 RMK A01 T00331062  RH  050%=      5-min Rain = 0
KSDS 200220Z 11007KT 03/M06 A3026 RMK A01 T00331061  RH  050%=      5-min Rain = 0
KSDS 200225Z 11006KT 04/M06 A3027 RMK A01 T00361059  RH  050%=      5-min Rain = 0
KSDS 200230Z 12005KT 04/M06 A3027 RMK A01 T00381059  RH  049%=      5-min Rain = 0
KSDS 200235Z 12005KT 04/M06 A3027 RMK A01 T00391058  RH  049%=      5-min Rain = 0
KSDS 200240Z 13005KT 04/M06 A3028 RMK A01 T00361060  RH  049%=      5-min Rain = 0
KSDS 200245Z 13006KT 03/M06 A3028 RMK A01 T00331059  RH  051%=      5-min Rain = 0
KSDS 200250Z 12006KT 04/M06 A3028 RMK A01 T00361056  RH  051%=      5-min Rain = 0
KSDS 200255Z 13006KT 04/M06 A3028 RMK A01 T00351055  RH  052%=      5-min Rain = 0
KSDS 200300Z 13005KT 03/M06 A3028 RMK A01 T00311057  RH  053%=      5-min Rain = 0
KSDS 200305Z 15006KT 03/M06 A3027 RMK A01 T00281058  RH  053%=      5-min Rain = 0
KSDS 200310Z 15007KT 02/M06 A3026 RMK A01 T00191063  RH  055%=      5-min Rain = 0
KSDS 200315Z 15007KT 01/M06 A3026 RMK A01 T00111062  RH  058%=      5-min Rain = 0
KSDS 200320Z 15008KT 01/M06 A3026 RMK A01 T00061063  RH  060%=      5-min Rain = 0
KSDS 200325Z 15007KT 01/M06 A3026 RMK A01 T00051061  RH  061%=      5-min Rain = 0
KSDS 200330Z 16008KT 00/M06 A3026 RMK A01 T00031062  RH  062%=      5-min Rain = 0
KSDS 200335Z 16008KT M00/M06 A3026 RMK A01 T10011061  RH  064%=      5-min Rain = 0
KSDS 200340Z 17008KT M00/M06 A3027 RMK A01 T10011060  RH  064%=      5-min Rain = 0
KSDS 200345Z 17008KT M00/M06 A3026 RMK A01 T10031058  RH  066%=      5-min Rain = 0
KSDS 200350Z 17007KT M00/M06 A3026 RMK A01 T10011056  RH  066%=      5-min Rain = 0
KSDS 200355Z 16007KT M00/M06 A3026 RMK A01 T10011057  RH  066%=      5-min Rain = 0
KSDS 200400Z 16008KT M00/M06 A3026 RMK A01 T10031059  RH  066%=      5-min Rain = 0
KSDS 200405Z 16007KT M01/M06 A3026 RMK A01 T10051058  RH  067%=      5-min Rain = 0
KSDS 200410Z 17008KT M00/M06 A3026 RMK A01 T10031057  RH  067%=      5-min Rain = 0
KSDS 200415Z 17007KT M00/M06 A3027 RMK A01 T10041057  RH  068%=      5-min Rain = 0
KSDS 200420Z 19007KT M01/M06 A3027 RMK A01 T10051056  RH  069%=      5-min Rain = 0
KSDS 200425Z 19007KT M01/M06 A3027 RMK A01 T10061055  RH  070%=      5-min Rain = 0
KSDS 200430Z 19006KT M01/M06 A3027 RMK A01 T10061055  RH  069%=      5-min Rain = 0
KSDS 200435Z 19007KT M01/M06 A3027 RMK A01 T10081058  RH  069%=      5-min Rain = 0
KSDS 200440Z 19007KT M01/M06 A3027 RMK A01 T10101058  RH  070%=      5-min Rain = 0
KSDS 200445Z 19007KT M01/M06 A3027 RMK A01 T10101059  RH  070%=      5-min Rain = 0
KSDS 200450Z 18008KT M01/M06 A3026 RMK A01 T10131060  RH  071%=      5-min Rain = 0
KSDS 200455Z 18008KT M02/M06 A3026 RMK A01 T10151059  RH  072%=      5-min Rain = 0
KSDS 200500Z 18007KT M01/M06 A3026 RMK A01 T10141058  RH  072%=      5-min Rain = 0
KSDS 200505Z 18008KT M01/M06 A3026 RMK A01 T10141057  RH  073%=      5-min Rain = 0
KSDS 200510Z 17007KT M01/M05 A3026 RMK A01 T10111054  RH  073%=      5-min Rain = 0
KSDS 200515Z 17008KT M01/M05 A3026 RMK A01 T10091052  RH  073%=      5-min Rain = 0
KSDS 200520Z 17008KT M01/M05 A3026 RMK A01 T10111054  RH  073%=      5-min Rain = 0
KSDS 200525Z 17008KT M01/M06 A3026 RMK A01 T10111055  RH  073%=      5-min Rain = 0
KSDS 200530Z 17009KT M02/M06 A3027 RMK A01 T10151057  RH  073%=      5-min Rain = 0
KSDS 200535Z 16008KT M02/M06 A3027 RMK A01 T10171058  RH  074%=      5-min Rain = 0
KSDS 200540Z 16008KT M02/M06 A3028 RMK A01 T10191059  RH  074%=      5-min Rain = 0
KSDS 200545Z 17008KT M02/M06 A3028 RMK A01 T10191059  RH  074%=      5-min Rain = 0
KSDS 200550Z 17007KT M02/M06 A3027 RMK A01 T10201059  RH  075%=      5-min Rain = 0
KSDS 200555Z 17007KT M02/M06 A3027 RMK A01 T10201059  RH  075%=      5-min Rain = 0

Page generated in 0.0231 seconds.